Terminal Aerodrome Forecast
Issued by NWS

Home | Current Version | Previous Version | Text Only | Print | Product List | Glossary Off
Versions: 1 2 3 4 5 6 7 8 9 10 11 12 13 14 15 16 17 18 19 20 21 22 23 24 25 26 27 28 29

000
FTUS43 KLOT 252321
TAFGYY
TAF
KGYY 252321Z 2600/2624 14014G22KT P6SM FEW050 BKN250
     FM260400 16012KT P6SM SCT030 BKN120
     FM261200 18014G20KT P6SM VCSH OVC040 PROB30 2613/2616 4SM -TSRA
      OVC025CB
     FM262200 20015G24KT 6SM SHRA OVC030
      TEMPO 2622/2624 3SM TSRA OVC020CB=

USA.gov is the U.S. government's official web portal to all federal, state and local government web resources and services.